sensor_id;sensor_type;location;lat;lon;timestamp;pressure;altitude;pressure_sealevel;temperature;humidity
26489;BME280;14169;43.684;10.484;2022-12-24T00:01:12;101385.78;;;13.95;100.00
26489;BME280;14169;43.684;10.484;2022-12-24T00:03:37;101382.97;;;13.99;100.00
26489;BME280;14169;43.684;10.484;2022-12-24T00:06:15;101374.22;;;14.00;100.00
26489;BME280;14169;43.684;10.484;2022-12-24T00:08:41;101371.44;;;14.05;100.00
26489;BME280;14169;43.684;10.484;2022-12-24T00:11:06;101370.59;;;14.04;100.00
26489;BME280;14169;43.684;10.484;2022-12-24T00:13:32;101366.22;;;14.05;100.00
26489;BME280;14169;43.684;10.484;2022-12-24T00:15:58;101359.97;;;14.07;100.00
26489;BME280;14169;43.684;10.484;2022-12-24T00:18:23;101357.25;;;14.10;100.00
26489;BME280;14169;43.684;10.484;2022-12-24T00:20:49;101359.03;;;14.10;100.00
26489;BME280;14169;43.684;10.484;2022-12-24T00:23:15;101356.53;;;14.07;100.00
26489;BME280;14169;43.684;10.484;2022-12-24T00:25:41;101353.91;;;14.07;100.00
26489;BME280;14169;43.684;10.484;2022-12-24T00:28:07;101365.19;;;14.09;100.00
26489;BME280;14169;43.684;10.484;2022-12-24T00:30:32;101357.31;;;14.09;100.00
26489;BME280;14169;43.684;10.484;2022-12-24T00:32:58;101359.09;;;14.08;100.00
26489;BME280;14169;43.684;10.484;2022-12-24T00:35:23;101367.00;;;14.07;100.00
26489;BME280;14169;43.684;10.484;2022-12-24T00:37:49;101364.31;;;14.08;100.00
26489;BME280;14169;43.684;10.484;2022-12-24T00:40:15;101364.31;;;14.08;100.00
26489;BME280;14169;43.684;10.484;2022-12-24T00:42:41;101370.47;;;14.07;100.00
26489;BME280;14169;43.684;10.484;2022-12-24T00:45:07;101359.25;;;14.04;100.00
26489;BME280;14169;43.684;10.484;2022-12-24T00:47:33;101355.72;;;14.05;100.00
26489;BME280;14169;43.684;10.484;2022-12-24T00:49:58;101363.63;;;14.03;100.00
26489;BME280;14169;43.684;10.484;2022-12-24T00:52:23;101373.28;;;14.01;100.00
26489;BME280;14169;43.684;10.484;2022-12-24T00:54:49;101369.78;;;14.02;100.00
26489;BME280;14169;43.684;10.484;2022-12-24T00:57:14;101364.59;;;14.01;100.00
26489;BME280;14169;43.684;10.484;2022-12-24T00:59:40;101372.41;;;14.02;100.00
26489;BME280;14169;43.684;10.484;2022-12-24T01:02:05;101368.03;;;14.03;100.00
26489;BME280;14169;43.684;10.484;2022-12-24T01:04:31;101359.25;;;14.04;100.00
26489;BME280;14169;43.684;10.484;2022-12-24T01:07:14;101365.28;;;14.06;100.00
26489;BME280;14169;43.684;10.484;2022-12-24T01:09:40;101375.66;;;14.09;100.00
26489;BME280;14169;43.684;10.484;2022-12-24T01:12:05;101373.88;;;14.09;100.00
26489;BME280;14169;43.684;10.484;2022-12-24T01:14:31;101373.88;;;14.09;100.00
26489;BME280;14169;43.684;10.484;2022-12-24T01:16:56;101372.13;;;14.10;100.00
26489;BME280;14169;43.684;10.484;2022-12-24T01:19:22;101368.47;;;14.14;100.00
26489;BME280;14169;43.684;10.484;2022-12-24T01:21:47;101367.59;;;14.15;100.00
26489;BME280;14169;43.684;10.484;2022-12-24T01:24:14;101364.03;;;14.16;100.00
26489;BME280;14169;43.684;10.484;2022-12-24T01:26:40;101364.97;;;14.15;100.00
26489;BME280;14169;43.684;10.484;2022-12-24T01:29:06;101376.25;;;14.17;100.00
26489;BME280;14169;43.684;10.484;2022-12-24T01:31:31;101384.84;;;14.20;100.00
26489;BME280;14169;43.684;10.484;2022-12-24T01:33:57;101380.47;;;14.21;100.00
26489;BME280;14169;43.684;10.484;2022-12-24T01:36:22;101376.03;;;14.23;100.00
26489;BME280;14169;43.684;10.484;2022-12-24T01:38:47;101361.03;;;14.26;100.00
26489;BME280;14169;43.684;10.484;2022-12-24T01:41:19;101347.75;;;14.31;100.00
26489;BME280;14169;43.684;10.484;2022-12-24T01:47:02;101376.34;;;14.39;100.00
26489;BME280;14169;43.684;10.484;2022-12-24T01:49:30;101381.50;;;14.40;100.00
26489;BME280;14169;43.684;10.484;2022-12-24T01:52:08;101391.28;;;14.37;100.00
26489;BME280;14169;43.684;10.484;2022-12-24T01:54:57;101401.00;;;14.33;100.00
26489;BME280;14169;43.684;10.484;2022-12-24T01:57:29;101406.00;;;14.39;100.00
26489;BME280;14169;43.684;10.484;2022-12-24T01:59:57;101409.50;;;14.40;100.00
26489;BME280;14169;43.684;10.484;2022-12-24T02:02:26;101399.13;;;14.37;100.00
26489;BME280;14169;43.684;10.484;2022-12-24T02:07:36;101404.47;;;14.33;100.00
26489;BME280;14169;43.684;10.484;2022-12-24T02:10:02;101386.97;;;14.34;100.00
26489;BME280;14169;43.684;10.484;2022-12-24T02:12:31;101365.94;;;14.36;100.00
26489;BME280;14169;43.684;10.484;2022-12-24T02:14:59;101371.09;;;14.39;100.00
26489;BME280;14169;43.684;10.484;2022-12-24T02:17:36;101377.97;;;14.41;100.00
26489;BME280;14169;43.684;10.484;2022-12-24T02:20:20;101384.88;;;14.44;100.00
26489;BME280;14169;43.684;10.484;2022-12-24T02:31:40;101380.03;;;14.31;100.00
26489;BME280;14169;43.684;10.484;2022-12-24T02:40:05;101373.81;;;14.36;100.00
26489;BME280;14169;43.684;10.484;2022-12-24T02:42:11;101354.66;;;14.33;100.00
26489;BME280;14169;43.684;10.484;2022-12-24T02:47:12;101352.91;;;14.34;100.00
26489;BME280;14169;43.684;10.484;2022-12-24T02:49:43;101355.59;;;14.32;100.00
26489;BME280;14169;43.684;10.484;2022-12-24T02:52:33;101348.66;;;14.30;100.00
26489;BME280;14169;43.684;10.484;2022-12-24T02:55:02;101360.09;;;14.27;100.00
26489;BME280;14169;43.684;10.484;2022-12-24T03:00:12;101370.72;;;14.24;100.00
26489;BME280;14169;43.684;10.484;2022-12-24T03:08:11;101371.84;;;14.17;100.00
26489;BME280;14169;43.684;10.484;2022-12-24T03:10:45;101372.69;;;14.18;100.00
26489;BME280;14169;43.684;10.484;2022-12-24T03:13:16;101369.19;;;14.19;100.00
26489;BME280;14169;43.684;10.484;2022-12-24T03:15:45;101370.06;;;14.18;100.00
26489;BME280;14169;43.684;10.484;2022-12-24T03:18:13;101375.31;;;14.18;100.00
26489;BME280;14169;43.684;10.484;2022-12-24T03:20:43;101384.09;;;14.17;100.00
26489;BME280;14169;43.684;10.484;2022-12-24T03:23:09;101379.66;;;14.19;100.00
26489;BME280;14169;43.684;10.484;2022-12-24T03:25:38;101391.75;;;14.23;100.00
26489;BME280;14169;43.684;10.484;2022-12-24T03:28:05;101389.94;;;14.25;100.00
26489;BME280;14169;43.684;10.484;2022-12-24T03:30:32;101378.44;;;14.27;100.00
26489;BME280;14169;43.684;10.484;2022-12-24T03:32:57;101389.00;;;14.26;100.00
26489;BME280;14169;43.684;10.484;2022-12-24T03:35:23;101395.97;;;14.27;100.00
26489;BME280;14169;43.684;10.484;2022-12-24T03:37:48;101397.66;;;14.28;100.00
26489;BME280;14169;43.684;10.484;2022-12-24T03:40:14;101400.28;;;14.28;100.00
26489;BME280;14169;43.684;10.484;2022-12-24T03:42:39;101389.94;;;14.25;100.00
26489;BME280;14169;43.684;10.484;2022-12-24T03:45:05;101390.75;;;14.25;100.00
26489;BME280;14169;43.684;10.484;2022-12-24T03:47:31;101390.81;;;14.24;100.00
26489;BME280;14169;43.684;10.484;2022-12-24T03:49:56;101387.34;;;14.23;100.00
26489;BME280;14169;43.684;10.484;2022-12-24T03:52:22;101391.75;;;14.23;100.00
26489;BME280;14169;43.684;10.484;2022-12-24T03:54:47;101392.63;;;14.22;100.00
26489;BME280;14169;43.684;10.484;2022-12-24T03:57:13;101391.78;;;14.21;100.00
26489;BME280;14169;43.684;10.484;2022-12-24T03:59:38;101398.00;;;14.19;100.00
26489;BME280;14169;43.684;10.484;2022-12-24T04:02:04;101394.53;;;14.18;100.00
26489;BME280;14169;43.684;10.484;2022-12-24T04:04:29;101399.03;;;14.15;100.00
26489;BME280;14169;43.684;10.484;2022-12-24T04:06:56;101398.22;;;14.13;100.00
26489;BME280;14169;43.684;10.484;2022-12-24T04:09:21;101403.41;;;14.14;100.00
26489;BME280;14169;43.684;10.484;2022-12-24T04:11:47;101406.97;;;14.12;100.00
26489;BME280;14169;43.684;10.484;2022-12-24T04:14:12;101410.56;;;14.09;100.00
26489;BME280;14169;43.684;10.484;2022-12-24T04:16:38;101407.91;;;14.11;100.00
26489;BME280;14169;43.684;10.484;2022-12-24T04:19:03;101409.53;;;14.13;100.00
26489;BME280;14169;43.684;10.484;2022-12-24T04:21:28;101406.88;;;14.15;100.00
26489;BME280;14169;43.684;10.484;2022-12-24T04:23:54;101393.94;;;14.10;100.00
26489;BME280;14169;43.684;10.484;2022-12-24T04:26:19;101384.47;;;14.06;100.00
26489;BME280;14169;43.684;10.484;2022-12-24T04:28:45;101384.47;;;14.06;100.00
26489;BME280;14169;43.684;10.484;2022-12-24T04:31:12;101395.81;;;14.07;100.00
26489;BME280;14169;43.684;10.484;2022-12-24T04:33:38;101406.25;;;14.08;100.00
26489;BME280;14169;43.684;10.484;2022-12-24T04:36:05;101413.31;;;14.06;100.00
26489;BME280;14169;43.684;10.484;2022-12-24T04:38:31;101424.59;;;14.08;100.00
26489;BME280;14169;43.684;10.484;2022-12-24T04:43:27;101419.28;;;14.10;100.00
26489;BME280;14169;43.684;10.484;2022-12-24T04:45:53;101403.34;;;14.16;100.00
26489;BME280;14169;43.684;10.484;2022-12-24T04:48:18;101398.09;;;14.16;100.00
26489;BME280;14169;43.684;10.484;2022-12-24T04:50:44;101400.72;;;14.16;100.00
26489;BME280;14169;43.684;10.484;2022-12-24T04:53:09;101410.34;;;14.15;100.00
26489;BME280;14169;43.684;10.484;2022-12-24T04:55:35;101395.47;;;14.16;100.00
26489;BME280;14169;43.684;10.484;2022-12-24T04:58:00;101404.16;;;14.18;100.00
26489;BME280;14169;43.684;10.484;2022-12-24T05:00:25;101412.06;;;14.16;100.00
26489;BME280;14169;43.684;10.484;2022-12-24T05:02:51;101422.50;;;14.18;100.00
26489;BME280;14169;43.684;10.484;2022-12-24T05:05:17;101429.50;;;14.17;100.00
26489;BME280;14169;43.684;10.484;2022-12-24T05:07:42;101430.34;;;14.18;100.00
26489;BME280;14169;43.684;10.484;2022-12-24T05:10:08;101405.88;;;14.19;100.00
26489;BME280;14169;43.684;10.484;2022-12-24T05:12:35;101400.72;;;14.16;100.00
26489;BME280;14169;43.684;10.484;2022-12-24T05:15:00;101398.16;;;14.14;100.00
26489;BME280;14169;43.684;10.484;2022-12-24T05:17:26;101404.31;;;14.13;100.00
26489;BME280;14169;43.684;10.484;2022-12-24T05:19:51;101395.75;;;14.08;100.00
26489;BME280;14169;43.684;10.484;2022-12-24T05:22:16;101401.06;;;14.07;100.00
26489;BME280;14169;43.684;10.484;2022-12-24T05:25:00;101394.03;;;14.07;100.00
26489;BME280;14169;43.684;10.484;2022-12-24T05:27:44;101394.97;;;14.06;100.00
26489;BME280;14169;43.684;10.484;2022-12-24T05:30:11;101403.69;;;14.07;100.00
26489;BME280;14169;43.684;10.484;2022-12-24T05:32:36;101403.63;;;14.08;100.00
26489;BME280;14169;43.684;10.484;2022-12-24T05:35:02;101400.88;;;14.11;100.00
26489;BME280;14169;43.684;10.484;2022-12-24T05:37:27;101399.06;;;14.13;100.00
26489;BME280;14169;43.684;10.484;2022-12-24T05:39:52;101392.22;;;14.09;100.00
26489;BME280;14169;43.684;10.484;2022-12-24T05:42:18;101387.97;;;14.07;100.00
26489;BME280;14169;43.684;10.484;2022-12-24T05:44:43;101389.78;;;14.05;100.00
26489;BME280;14169;43.684;10.484;2022-12-24T05:47:09;101389.81;;;14.03;100.00
26489;BME280;14169;43.684;10.484;2022-12-24T05:49:34;101389.00;;;14.03;100.00
26489;BME280;14169;43.684;10.484;2022-12-24T05:51:59;101400.34;;;14.02;100.00
26489;BME280;14169;43.684;10.484;2022-12-24T05:54:25;101408.22;;;14.02;100.00
26489;BME280;14169;43.684;10.484;2022-12-24T05:56:50;101404.72;;;14.03;100.00
26489;BME280;14169;43.684;10.484;2022-12-24T05:59:15;101414.25;;;14.04;100.00
26489;BME280;14169;43.684;10.484;2022-12-24T06:01:41;101408.13;;;14.05;100.00
26489;BME280;14169;43.684;10.484;2022-12-24T06:04:11;101415.97;;;14.05;100.00
26489;BME280;14169;43.684;10.484;2022-12-24T06:06:36;101416.81;;;14.05;100.00
26489;BME280;14169;43.684;10.484;2022-12-24T06:09:02;101420.31;;;14.06;100.00
26489;BME280;14169;43.684;10.484;2022-12-24T06:11:28;101412.38;;;14.07;100.00
26489;BME280;14169;43.684;10.484;2022-12-24T06:13:54;101403.63;;;14.08;100.00
26489;BME280;14169;43.684;10.484;2022-12-24T06:16:20;101407.09;;;14.09;100.00
26489;BME280;14169;43.684;10.484;2022-12-24T06:18:46;101403.63;;;14.08;100.00
26489;BME280;14169;43.684;10.484;2022-12-24T06:21:12;101402.81;;;14.06;100.00
26489;BME280;14169;43.684;10.484;2022-12-24T06:23:39;101402.81;;;14.06;100.00
26489;BME280;14169;43.684;10.484;2022-12-24T06:26:06;101401.91;;;14.07;100.00
26489;BME280;14169;43.684;10.484;2022-12-24T06:28:34;101407.09;;;14.09;100.00
26489;BME280;14169;43.684;10.484;2022-12-24T06:31:00;101423.56;;;14.12;100.00
26489;BME280;14169;43.684;10.484;2022-12-24T06:33:27;101428.69;;;14.15;100.00
26489;BME280;14169;43.684;10.484;2022-12-24T06:35:52;101432.09;;;14.17;100.00
26489;BME280;14169;43.684;10.484;2022-12-24T06:38:18;101423.41;;;14.17;100.00
26489;BME280;14169;43.684;10.484;2022-12-24T06:40:44;101432.06;;;14.19;100.00
26489;BME280;14169;43.684;10.484;2022-12-24T06:43:11;101431.28;;;14.17;100.00
26489;BME280;14169;43.684;10.484;2022-12-24T06:45:37;101432.91;;;14.19;100.00
26489;BME280;14169;43.684;10.484;2022-12-24T06:48:02;101431.88;;;14.23;100.00
26489;BME280;14169;43.684;10.484;2022-12-24T06:50:28;101433.56;;;14.26;100.00
26489;BME280;14169;43.684;10.484;2022-12-24T06:52:54;101433.47;;;14.29;100.00
26489;BME280;14169;43.684;10.484;2022-12-24T06:55:19;101432.66;;;14.27;100.00
26489;BME280;14169;43.684;10.484;2022-12-24T06:57:44;101428.25;;;14.27;100.00
26489;BME280;14169;43.684;10.484;2022-12-24T07:00:11;101432.66;;;14.27;100.00
26489;BME280;14169;43.684;10.484;2022-12-24T07:02:43;101425.69;;;14.26;100.00
26489;BME280;14169;43.684;10.484;2022-12-24T07:05:09;101432.59;;;14.28;100.00
26489;BME280;14169;43.684;10.484;2022-12-24T07:07:40;101434.41;;;14.26;100.00
26489;BME280;14169;43.684;10.484;2022-12-24T07:10:06;101435.22;;;14.28;100.00
26489;BME280;14169;43.684;10.484;2022-12-24T07:12:32;101429.03;;;14.29;100.00
26489;BME280;14169;43.684;10.484;2022-12-24T07:14:58;101415.06;;;14.30;100.00
26489;BME280;14169;43.684;10.484;2022-12-24T07:17:23;101410.66;;;14.31;100.00
26489;BME280;14169;43.684;10.484;2022-12-24T07:19:49;101409.00;;;14.28;100.00
26489;BME280;14169;43.684;10.484;2022-12-24T07:22:14;101413.44;;;14.26;100.00
26489;BME280;14169;43.684;10.484;2022-12-24T07:24:40;101416.13;;;14.25;100.00
26489;BME280;14169;43.684;10.484;2022-12-24T07:27:05;101426.63;;;14.25;100.00
26489;BME280;14169;43.684;10.484;2022-12-24T07:29:31;101427.50;;;14.24;100.00
26489;BME280;14169;43.684;10.484;2022-12-24T07:31:56;101416.16;;;14.23;100.00
26489;BME280;14169;43.684;10.484;2022-12-24T07:34:21;101419.66;;;14.24;100.00
26489;BME280;14169;43.684;10.484;2022-12-24T07:36:47;101410.13;;;14.21;100.00
26489;BME280;14169;43.684;10.484;2022-12-24T07:39:12;101398.84;;;14.19;100.00
26489;BME280;14169;43.684;10.484;2022-12-24T07:41:38;101418.84;;;14.22;100.00
26489;BME280;14169;43.684;10.484;2022-12-24T07:44:03;101417.19;;;14.19;100.00
26489;BME280;14169;43.684;10.484;2022-12-24T07:46:29;101422.41;;;14.21;100.00
26489;BME280;14169;43.684;10.484;2022-12-24T07:48:54;101425.84;;;14.21;100.00
26489;BME280;14169;43.684;10.484;2022-12-24T07:51:19;101435.38;;;14.24;100.00
26489;BME280;14169;43.684;10.484;2022-12-24T07:53:45;101439.66;;;14.26;100.00
26489;BME280;14169;43.684;10.484;2022-12-24T07:56:15;101445.63;;;14.30;100.00
26489;BME280;14169;43.684;10.484;2022-12-24T07:58:41;101451.81;;;14.29;100.00
26489;BME280;14169;43.684;10.484;2022-12-24T08:01:06;101464.81;;;14.32;100.00
26489;BME280;14169;43.684;10.484;2022-12-24T08:03:32;101463.00;;;14.34;100.00
26489;BME280;14169;43.684;10.484;2022-12-24T08:05:58;101472.53;;;14.37;100.00
26489;BME280;14169;43.684;10.484;2022-12-24T08:08:24;101480.41;;;14.37;100.00
26489;BME280;14169;43.684;10.484;2022-12-24T08:10:50;101482.28;;;14.33;100.00
26489;BME280;14169;43.684;10.484;2022-12-24T08:13:16;101471.78;;;14.33;100.00
26489;BME280;14169;43.684;10.484;2022-12-24T08:15:42;101482.34;;;14.30;100.00
26489;BME280;14169;43.684;10.484;2022-12-24T08:18:09;101485.81;;;14.30;100.00
26489;BME280;14169;43.684;10.484;2022-12-24T08:20:40;101494.63;;;14.28;100.00
26489;BME280;14169;43.684;10.484;2022-12-24T08:23:06;101492.94;;;14.27;100.00
26489;BME280;14169;43.684;10.484;2022-12-24T08:25:31;101497.41;;;14.23;100.00
26489;BME280;14169;43.684;10.484;2022-12-24T08:27:57;101498.34;;;14.22;100.00
26489;BME280;14169;43.684;10.484;2022-12-24T08:30:22;101496.66;;;14.20;100.00
26489;BME280;14169;43.684;10.484;2022-12-24T08:32:48;101503.72;;;14.18;100.00
26489;BME280;14169;43.684;10.484;2022-12-24T08:35:13;101512.44;;;14.18;100.00
26489;BME280;14169;43.684;10.484;2022-12-24T08:37:41;101516.78;;;14.19;100.00
26489;BME280;14169;43.684;10.484;2022-12-24T08:40:07;101507.16;;;14.20;100.00
26489;BME280;14169;43.684;10.484;2022-12-24T08:42:32;101513.25;;;14.20;100.00
26489;BME280;14169;43.684;10.484;2022-12-24T08:44:58;101523.75;;;14.20;100.00
26489;BME280;14169;43.684;10.484;2022-12-24T08:47:24;101530.69;;;14.21;100.00
26489;BME280;14169;43.684;10.484;2022-12-24T08:49:49;101530.53;;;14.26;100.00
26489;BME280;14169;43.684;10.484;2022-12-24T08:52:15;101535.63;;;14.30;100.00
26489;BME280;14169;43.684;10.484;2022-12-24T08:54:40;101540.75;;;14.35;100.00
26489;BME280;14169;43.684;10.484;2022-12-24T08:57:06;101540.56;;;14.40;100.00
26489;BME280;14169;43.684;10.484;2022-12-24T08:59:31;101551.78;;;14.43;100.00
26489;BME280;14169;43.684;10.484;2022-12-24T09:01:56;101542.09;;;14.45;100.00
26489;BME280;14169;43.684;10.484;2022-12-24T09:04:22;101549.81;;;14.50;100.00
26489;BME280;14169;43.684;10.484;2022-12-24T09:06:47;101547.94;;;14.53;100.00
26489;BME280;14169;43.684;10.484;2022-12-24T09:09:13;101546.97;;;14.56;100.00
26489;BME280;14169;43.684;10.484;2022-12-24T09:11:38;101559.06;;;14.60;100.00
26489;BME280;14169;43.684;10.484;2022-12-24T09:14:03;101564.25;;;14.61;100.00
26489;BME280;14169;43.684;10.484;2022-12-24T09:16:29;101551.06;;;14.64;100.00
26489;BME280;14169;43.684;10.484;2022-12-24T09:18:55;101551.94;;;14.63;100.00
26489;BME280;14169;43.684;10.484;2022-12-24T09:21:21;101549.38;;;14.62;100.00
26489;BME280;14169;43.684;10.484;2022-12-24T09:23:47;101556.50;;;14.58;100.00
26489;BME280;14169;43.684;10.484;2022-12-24T09:26:17;101553.03;;;14.58;100.00
26489;BME280;14169;43.684;10.484;2022-12-24T09:28:43;101560.84;;;14.59;100.00
26489;BME280;14169;43.684;10.484;2022-12-24T09:31:10;101557.16;;;14.65;100.00
26489;BME280;14169;43.684;10.484;2022-12-24T09:33:38;101565.84;;;14.67;100.00
26489;BME280;14169;43.684;10.484;2022-12-24T09:36:05;101576.91;;;14.75;100.00
26489;BME280;14169;43.684;10.484;2022-12-24T09:38:30;101578.50;;;14.79;100.00
26489;BME280;14169;43.684;10.484;2022-12-24T09:40:57;101581.75;;;14.85;100.00
26489;BME280;14169;43.684;10.484;2022-12-24T09:43:33;101586.97;;;14.87;100.00
26489;BME280;14169;43.684;10.484;2022-12-24T09:48:43;101575.47;;;14.89;100.00
26489;BME280;14169;43.684;10.484;2022-12-24T09:51:11;101573.84;;;14.87;100.00
26489;BME280;14169;43.684;10.484;2022-12-24T09:54:02;101566.94;;;14.84;100.00
26489;BME280;14169;43.684;10.484;2022-12-24T09:56:33;101580.78;;;14.88;100.00
26489;BME280;14169;43.684;10.484;2022-12-24T09:59:04;101566.78;;;14.89;100.00
26489;BME280;14169;43.684;10.484;2022-12-24T10:01:33;101571.03;;;14.91;100.00
26489;BME280;14169;43.684;10.484;2022-12-24T10:04:02;101569.34;;;14.90;100.00
26489;BME280;14169;43.684;10.484;2022-12-24T10:06:34;101566.59;;;14.93;100.00
26489;BME280;14169;43.684;10.484;2022-12-24T10:12:03;101566.50;;;14.96;100.00
26489;BME280;14169;43.684;10.484;2022-12-24T10:18:18;101562.63;;;15.06;100.00
26489;BME280;14169;43.684;10.484;2022-12-24T10:21:00;101566.06;;;15.07;100.00
26489;BME280;14169;43.684;10.484;2022-12-24T10:23:52;101567.72;;;15.09;100.00
26489;BME280;14169;43.684;10.484;2022-12-24T10:28:51;101557.88;;;15.16;100.00
26489;BME280;14169;43.684;10.484;2022-12-24T10:31:35;101556.16;;;15.15;100.00
26489;BME280;14169;43.684;10.484;2022-12-24T10:34:11;101549.69;;;15.24;100.00
26489;BME280;14169;43.684;10.484;2022-12-24T10:36:38;101555.59;;;15.30;100.00
26489;BME280;14169;43.684;10.484;2022-12-24T10:39:08;101552.72;;;15.36;100.00
26489;BME280;14169;43.684;10.484;2022-12-24T10:41:38;101545.50;;;15.43;100.00
26489;BME280;14169;43.684;10.484;2022-12-24T10:44:04;101554.19;;;15.45;100.00
26489;BME280;14169;43.684;10.484;2022-12-24T10:46:37;101547.28;;;15.42;100.00
26489;BME280;14169;43.684;10.484;2022-12-24T10:49:05;101544.56;;;15.44;100.00
26489;BME280;14169;43.684;10.484;2022-12-24T10:51:45;101548.84;;;15.46;100.00
26489;BME280;14169;43.684;10.484;2022-12-24T10:54:15;101553.16;;;15.49;100.00
26489;BME280;14169;43.684;10.484;2022-12-24T10:56:43;101559.13;;;15.52;100.00
26489;BME280;14169;43.684;10.484;2022-12-24T11:01:57;101558.41;;;15.49;100.00
26489;BME280;14169;43.684;10.484;2022-12-24T11:04:28;101560.41;;;15.42;100.00
26489;BME280;14169;43.684;10.484;2022-12-24T11:07:05;101557.34;;;15.30;100.00
26489;BME280;14169;43.684;10.484;2022-12-24T11:09:33;101560.09;;;15.27;100.00
26489;BME280;14169;43.684;10.484;2022-12-24T11:12:01;101555.75;;;15.26;100.00
26489;BME280;14169;43.684;10.484;2022-12-24T11:14:33;101560.28;;;15.22;100.00
26489;BME280;14169;43.684;10.484;2022-12-24T11:16:59;101568.06;;;15.24;100.00
26489;BME280;14169;43.684;10.484;2022-12-24T11:19:30;101571.28;;;15.32;100.00
26489;BME280;14169;43.684;10.484;2022-12-24T11:21:59;101565.59;;;15.44;100.00
26489;BME280;14169;43.684;10.484;2022-12-24T11:24:28;101568.38;;;15.39;100.00
26489;BME280;14169;43.684;10.484;2022-12-24T11:27:28;101562.38;;;15.36;100.00
26489;BME280;14169;43.684;10.484;2022-12-24T11:32:42;101561.91;;;15.48;100.00
26489;BME280;14169;43.684;10.484;2022-12-24T11:35:23;101564.19;;;15.34;100.00
26489;BME280;14169;43.684;10.484;2022-12-24T11:38:09;101567.13;;;15.26;100.00
26489;BME280;14169;43.684;10.484;2022-12-24T11:40:43;101566.09;;;15.30;100.00
26489;BME280;14169;43.684;10.484;2022-12-24T11:43:19;101568.88;;;15.26;100.00
26489;BME280;14169;43.684;10.484;2022-12-24T11:45:53;101568.00;;;15.25;100.00
26489;BME280;14169;43.684;10.484;2022-12-24T11:51:00;101576.53;;;15.32;100.00
26489;BME280;14169;43.684;10.484;2022-12-24T11:53:37;101574.38;;;15.43;100.00
26489;BME280;14169;43.684;10.484;2022-12-24T11:56:13;101558.50;;;15.46;100.00
26489;BME280;14169;43.684;10.484;2022-12-24T11:58:49;101559.53;;;15.42;100.00
26489;BME280;14169;43.684;10.484;2022-12-24T12:04:04;101553.88;;;15.52;100.00
26489;BME280;14169;43.684;10.484;2022-12-24T12:06:45;101552.03;;;15.54;100.00
26489;BME280;14169;43.684;10.484;2022-12-24T12:10:02;101561.59;;;15.57;100.00
26489;BME280;14169;43.684;10.484;2022-12-24T12:12:25;101558.81;;;15.60;100.00
26489;BME280;14169;43.684;10.484;2022-12-24T12:14:59;101542.88;;;15.64;100.00
26489;BME280;14169;43.684;10.484;2022-12-24T12:19:59;101541.53;;;15.76;100.00
26489;BME280;14169;43.684;10.484;2022-12-24T12:22:52;101548.47;;;15.77;100.00
26489;BME280;14169;43.684;10.484;2022-12-24T12:25:36;101553.56;;;15.81;100.00
26489;BME280;14169;43.684;10.484;2022-12-24T12:28:06;101558.63;;;15.86;100.00
26489;BME280;14169;43.684;10.484;2022-12-24T12:30:38;101553.31;;;15.87;100.00
26489;BME280;14169;43.684;10.484;2022-12-24T12:33:18;101541.03;;;15.88;100.00
26489;BME280;14169;43.684;10.484;2022-12-24T12:35:46;101534.81;;;15.90;100.00
26489;BME280;14169;43.684;10.484;2022-12-24T12:38:18;101520.66;;;15.93;100.00
26489;BME280;14169;43.684;10.484;2022-12-24T12:46:02;101523.72;;;16.04;100.00
26489;BME280;14169;43.684;10.484;2022-12-24T12:51:23;101540.34;;;16.05;100.00
26489;BME280;14169;43.684;10.484;2022-12-24T12:56:43;101548.63;;;16.16;100.00
26489;BME280;14169;43.684;10.484;2022-12-24T12:59:35;101544.09;;;16.19;100.00
26489;BME280;14169;43.684;10.484;2022-12-24T13:18:43;101561.91;;;16.54;100.00
26489;BME280;14169;43.684;10.484;2022-12-24T13:21:16;101550.50;;;16.54;100.00
26489;BME280;14169;43.684;10.484;2022-12-24T13:23:43;101547.88;;;16.54;100.00
26489;BME280;14169;43.684;10.484;2022-12-24T13:26:11;101551.50;;;16.51;100.00
26489;BME280;14169;43.684;10.484;2022-12-24T13:28:37;101554.13;;;16.51;100.00
26489;BME280;14169;43.684;10.484;2022-12-24T13:33:55;101547.44;;;16.44;100.00
26489;BME280;14169;43.684;10.484;2022-12-24T13:36:21;101563.22;;;16.44;100.00
26489;BME280;14169;43.684;10.484;2022-12-24T13:38:56;101557.97;;;16.44;100.00
26489;BME280;14169;43.684;10.484;2022-12-24T13:49:40;101561.72;;;16.37;100.00
26489;BME280;14169;43.684;10.484;2022-12-24T13:54:41;101570.25;;;16.44;100.00
26489;BME280;14169;43.684;10.484;2022-12-24T14:00:02;101575.00;;;16.34;100.00
26489;BME280;14169;43.684;10.484;2022-12-24T14:02:33;101576.25;;;16.26;100.00
26489;BME280;14169;43.684;10.484;2022-12-24T14:05:02;101585.25;;;16.20;100.00
26489;BME280;14169;43.684;10.484;2022-12-24T14:07:29;101581.38;;;16.09;100.00
26489;BME280;14169;43.684;10.484;2022-12-24T14:09:56;101595.25;;;15.90;100.00
26489;BME280;14169;43.684;10.484;2022-12-24T14:12:46;101598.94;;;15.85;100.00
26489;BME280;14169;43.684;10.484;2022-12-24T14:18:08;101598.94;;;15.63;100.00
26489;BME280;14169;43.684;10.484;2022-12-24T14:20:35;101601.72;;;15.60;100.00
26489;BME280;14169;43.684;10.484;2022-12-24T14:23:03;101611.34;;;15.60;100.00